Time;durP1;ratioP1;P1;durP2;ratioP2;P2;SDS_P1;SDS_P2;PMS_P1;PMS_P2;Temp;Humidity;BMP_temperature;BMP_pressure;BME280_temperature;BME280_humidity;BME280_pressure;Samples;Min_cycle;Max_cycle;Signal;HPM_P1;HPM_P2
2022/02/05 00:02:47;;;;;;;1.98;1.10;;;;;11.30;101299.00;;;;5017422;28;20199;-81
2022/02/05 00:05:19;;;;;;;1.48;0.30;;;;;11.30;101302.00;;;;5019791;28;20288;-82
2022/02/05 00:07:56;;;;;;;2.28;0.60;;;;;11.30;101300.00;;;;5020904;28;20232;-81
2022/02/05 00:10:59;;;;;;;0.82;0.25;;;;;11.30;101296.00;;;;5021173;28;20566;-81
2022/02/05 00:13:42;;;;;;;1.88;0.20;;;;;11.40;101312.00;;;;5017352;28;20276;-83
2022/02/05 00:19:58;;;;;;;3.30;0.50;;;;;11.30;101310.00;;;;5018307;28;20203;-83
2022/02/05 00:38:22;;;;;;;4.07;0.43;;;;;11.30;101317.00;;;;5027155;28;20219;-82
2022/02/05 00:40:55;;;;;;;1.20;0.50;;;;;11.30;101318.00;;;;5016674;28;20228;-82
2022/02/05 00:43:22;;;;;;;2.58;0.40;;;;;11.30;101319.00;;;;5024870;28;20200;-82
2022/02/05 00:45:54;;;;;;;4.10;0.55;;;;;11.30;101323.00;;;;5012745;28;20219;-82
2022/02/05 00:48:23;;;;;;;5.20;0.70;;;;;11.20;101329.00;;;;5021945;28;20279;-84
2022/02/05 00:50:55;;;;;;;3.47;0.80;;;;;11.20;101324.00;;;;5027666;28;20200;-82
2022/02/05 00:53:29;;;;;;;4.07;1.05;;;;;11.20;101331.00;;;;5016755;28;20759;-82
2022/02/05 00:56:04;;;;;;;2.85;0.90;;;;;11.20;101332.00;;;;5016842;28;20306;-82
2022/02/05 00:58:32;;;;;;;1.83;0.77;;;;;11.10;101335.00;;;;5014716;28;20203;-84
2022/02/05 01:00:59;;;;;;;2.42;0.68;;;;;11.10;101332.00;;;;5025607;28;20204;-83
2022/02/05 01:03:26;;;;;;;2.22;0.75;;;;;11.10;101340.00;;;;5012378;28;20223;-82
2022/02/05 01:05:54;;;;;;;3.35;0.88;;;;;11.10;101346.00;;;;5008919;28;20225;-81
2022/02/05 01:08:24;;;;;;;4.50;0.65;;;;;11.10;101343.00;;;;5018628;28;20213;-82
2022/02/05 01:10:52;;;;;;;5.82;0.85;;;;;11.10;101357.00;;;;5010618;28;20270;-82
2022/02/05 01:13:20;;;;;;;2.08;0.70;;;;;11.00;101351.00;;;;5012864;28;20209;-82
2022/02/05 01:15:54;;;;;;;2.40;0.70;;;;;11.00;101358.00;;;;5022340;28;20209;-82
2022/02/05 01:18:24;;;;;;;2.42;0.60;;;;;11.00;101366.00;;;;5022489;28;20224;-82
2022/02/05 01:23:47;;;;;;;3.55;0.75;;;;;11.00;101379.00;;;;5003903;28;20208;-82
2022/02/05 01:26:21;;;;;;;5.13;0.75;;;;;11.00;101377.00;;;;5012358;28;20698;-82
2022/02/05 01:28:54;;;;;;;2.97;0.73;;;;;11.00;101377.00;;;;5017797;28;20196;-82
2022/02/05 01:31:27;;;;;;;1.13;0.30;;;;;10.90;101384.00;;;;5022367;28;20210;-82
2022/02/05 01:34:05;;;;;;;3.40;0.47;;;;;10.90;101386.00;;;;5024887;28;20192;-81
2022/02/05 01:48:53;;;;;;;4.03;0.77;;;;;10.90;101393.00;;;;5024187;28;20685;-81
2022/02/05 01:51:02;;;;;;;3.65;1.00;;;;;10.80;101399.00;;;;5019619;28;20218;-81
2022/02/05 01:53:37;;;;;;;2.17;0.50;;;;;10.80;101408.00;;;;5021978;28;20258;-82
2022/02/05 01:59:10;;;;;;;5.47;0.75;;;;;10.80;101419.00;;;;5028423;28;20283;-81
2022/02/05 02:10:21;;;;;;;1.40;0.30;;;;;10.70;101438.00;;;;4981265;28;20515;-81
2022/02/05 02:13:07;;;;;;;2.00;0.55;;;;;10.70;101441.00;;;;4996678;28;20228;-81
2022/02/05 02:15:40;;;;;;;0.82;0.40;;;;;10.70;101441.00;;;;5010789;28;20269;-81
2022/02/05 02:18:20;;;;;;;7.93;0.60;;;;;10.70;101444.00;;;;5017384;28;20320;-82
2022/02/05 02:21:02;;;;;;;4.20;0.40;;;;;10.60;101447.00;;;;5010199;28;20196;-82
2022/02/05 02:23:43;;;;;;;1.45;0.52;;;;;10.60;101450.00;;;;5027871;28;20208;-82
2022/02/05 02:26:19;;;;;;;4.18;0.70;;;;;10.60;101458.00;;;;5024453;28;20224;-82
2022/02/05 02:28:52;;;;;;;3.45;0.80;;;;;10.60;101450.00;;;;5024786;28;20193;-82
2022/02/05 02:31:24;;;;;;;3.22;0.47;;;;;10.60;101460.00;;;;5017269;28;20188;-82
2022/02/05 02:33:55;;;;;;;5.05;0.80;;;;;10.60;101458.00;;;;5017260;28;20275;-82
2022/02/05 02:36:31;;;;;;;5.35;0.60;;;;;10.60;101463.00;;;;5023797;28;20301;-81
2022/02/05 02:39:06;;;;;;;3.70;0.65;;;;;10.60;101466.00;;;;5013741;28;20201;-82
2022/02/05 02:41:40;;;;;;;2.88;0.40;;;;;10.60;101465.00;;;;5019652;28;20292;-82
2022/02/05 02:44:07;;;;;;;5.20;1.02;;;;;10.60;101468.00;;;;5028686;28;20202;-81
2022/02/05 02:46:35;;;;;;;3.28;0.43;;;;;10.70;101469.00;;;;5014532;28;20213;-81
2022/02/05 02:49:03;;;;;;;2.53;0.73;;;;;10.70;101474.00;;;;5020638;28;20219;-81
2022/02/05 02:57:16;;;;;;;4.10;0.60;;;;;10.60;101474.00;;;;5025388;28;21878;-81
2022/02/05 02:59:52;;;;;;;4.65;1.00;;;;;10.60;101475.00;;;;5029150;28;20200;-81
2022/02/05 03:02:23;;;;;;;1.88;0.80;;;;;10.60;101476.00;;;;5028085;28;20259;-82
2022/02/05 03:04:53;;;;;;;3.13;1.00;;;;;10.60;101476.00;;;;5025718;28;20188;-81
2022/02/05 03:07:21;;;;;;;3.70;0.90;;;;;10.60;101490.00;;;;5026359;28;20286;-81
2022/02/05 03:09:49;;;;;;;4.32;0.45;;;;;10.50;101489.00;;;;5010250;28;20259;-81
2022/02/05 03:12:17;;;;;;;2.80;0.75;;;;;10.50;101490.00;;;;5021995;28;20200;-81
2022/02/05 03:14:44;;;;;;;2.88;0.47;;;;;10.50;101501.00;;;;5015472;28;20205;-81
2022/02/05 03:17:16;;;;;;;3.80;0.73;;;;;10.50;101504.00;;;;5009919;28;20422;-82
2022/02/05 03:19:46;;;;;;;3.17;0.75;;;;;10.50;101505.00;;;;5021910;28;20193;-81
2022/02/05 03:22:15;;;;;;;3.42;0.60;;;;;10.50;101512.00;;;;5016716;28;20192;-82
2022/02/05 03:24:43;;;;;;;3.25;0.70;;;;;10.50;101507.00;;;;5011408;28;20226;-82
2022/02/05 03:27:12;;;;;;;2.42;0.63;;;;;10.40;101515.00;;;;5029394;28;20223;-82
2022/02/05 03:29:42;;;;;;;4.13;0.70;;;;;10.40;101517.00;;;;5024254;28;20307;-81
2022/02/05 03:32:10;;;;;;;3.20;0.60;;;;;10.40;101523.00;;;;5013152;28;20205;-81
2022/02/05 03:34:40;;;;;;;2.25;0.55;;;;;10.40;101526.00;;;;5023020;28;20675;-82
2022/02/05 03:37:08;;;;;;;4.20;0.52;;;;;10.50;101520.00;;;;5019119;28;20211;-81
2022/02/05 03:39:35;;;;;;;3.15;0.43;;;;;10.50;101519.00;;;;5017916;28;20212;-81
2022/02/05 03:42:03;;;;;;;1.50;0.57;;;;;10.50;101526.00;;;;5020793;28;20207;-81
2022/02/05 03:44:32;;;;;;;3.42;0.50;;;;;10.50;101520.00;;;;5029252;28;20200;-81
2022/02/05 03:47:00;;;;;;;1.55;0.65;;;;;10.50;101529.00;;;;5017124;28;20320;-81
2022/02/05 03:49:28;;;;;;;3.05;0.80;;;;;10.60;101530.00;;;;5027652;28;20196;-81
2022/02/05 03:51:56;;;;;;;4.25;0.60;;;;;10.60;101531.00;;;;5017814;28;20219;-81
2022/02/05 03:54:26;;;;;;;3.95;0.50;;;;;10.60;101540.00;;;;5021600;28;20216;-81
2022/02/05 03:56:53;;;;;;;4.20;0.80;;;;;10.60;101543.00;;;;5028141;28;20207;-81
2022/02/05 03:59:21;;;;;;;1.50;0.45;;;;;10.60;101540.00;;;;5028923;28;20689;-81
2022/02/05 04:01:49;;;;;;;1.65;0.40;;;;;10.60;101536.00;;;;5026842;28;20211;-81
2022/02/05 04:04:17;;;;;;;2.20;0.88;;;;;10.70;101546.00;;;;5027838;28;20200;-81
2022/02/05 04:06:44;;;;;;;2.40;0.90;;;;;10.70;101551.00;;;;5027197;28;20216;-81
2022/02/05 04:09:18;;;;;;;4.18;0.77;;;;;10.70;101548.00;;;;5012442;28;20207;-81
2022/02/05 04:15:55;;;;;;;3.25;0.82;;;;;10.70;101549.00;;;;5009903;28;20196;-81
2022/02/05 04:17:32;;;;;;;5.25;1.00;;;;;10.60;101540.00;;;;5008265;28;20645;-82
2022/02/05 04:20:00;;;;;;;4.45;0.45;;;;;10.60;101546.00;;;;5021930;28;20200;-81
2022/02/05 04:22:28;;;;;;;3.00;0.43;;;;;10.60;101548.00;;;;5013269;28;20201;-81
2022/02/05 04:24:55;;;;;;;2.15;0.43;;;;;10.60;101555.00;;;;5022559;28;20212;-81
2022/02/05 04:27:22;;;;;;;3.30;1.00;;;;;10.60;101561.00;;;;5018433;28;20224;-81
2022/02/05 04:29:50;;;;;;;2.17;0.47;;;;;10.60;101561.00;;;;5019539;28;20212;-81
2022/02/05 04:32:17;;;;;;;1.90;0.52;;;;;10.60;101559.00;;;;5014690;28;20601;-81
2022/02/05 04:34:45;;;;;;;4.32;0.68;;;;;10.60;101564.00;;;;5017898;28;20200;-81
2022/02/05 04:37:13;;;;;;;4.32;0.60;;;;;10.60;101560.00;;;;5020188;28;20212;-82
2022/02/05 04:39:47;;;;;;;4.65;0.50;;;;;10.60;101572.00;;;;5011812;28;20203;-82
2022/02/05 04:42:21;;;;;;;6.40;0.80;;;;;10.70;101567.00;;;;5016996;28;20203;-82
2022/02/05 04:45:06;;;;;;;1.27;0.30;;;;;10.70;101572.00;;;;5023827;28;20200;-82
2022/02/05 04:47:54;;;;;;;2.97;0.73;;;;;10.70;101574.00;;;;5010444;28;20710;-81
2022/02/05 04:50:50;;;;;;;5.85;1.20;;;;;10.70;101578.00;;;;5028165;28;20196;-81
2022/02/05 04:53:30;;;;;;;5.78;0.52;;;;;10.70;101571.00;;;;5008265;28;21013;-81
2022/02/05 04:59:07;;;;;;;4.22;0.88;;;;;10.80;101584.00;;;;5022596;28;20226;-81
2022/02/05 05:01:51;;;;;;;5.10;0.70;;;;;10.80;101585.00;;;;5011107;28;20199;-81
2022/02/05 05:04:26;;;;;;;3.25;0.60;;;;;10.80;101584.00;;;;5009204;28;20197;-82
2022/02/05 05:09:47;;;;;;;4.05;0.80;;;;;10.80;101591.00;;;;4997272;28;20205;-82
2022/02/05 05:12:22;;;;;;;3.20;1.00;;;;;10.80;101590.00;;;;5019033;28;20663;-81
2022/02/05 05:20:19;;;;;;;1.98;0.50;;;;;10.70;101587.00;;;;5031227;28;20276;-81
2022/02/05 05:22:48;;;;;;;3.25;0.88;;;;;10.70;101593.00;;;;5023696;28;20193;-82
2022/02/05 05:25:15;;;;;;;6.40;1.10;;;;;10.60;101604.00;;;;5021925;28;20242;-81
2022/02/05 05:27:43;;;;;;;3.95;0.85;;;;;10.60;101597.00;;;;5020082;28;20644;-82
2022/02/05 05:30:11;;;;;;;6.25;0.88;;;;;10.60;101607.00;;;;5018436;28;20217;-81
2022/02/05 05:32:40;;;;;;;2.30;0.43;;;;;10.60;101613.00;;;;5021253;28;20207;-81
2022/02/05 05:35:08;;;;;;;3.88;0.45;;;;;10.50;101615.00;;;;5022443;28;20201;-82
2022/02/05 05:37:36;;;;;;;6.53;0.60;;;;;10.50;101618.00;;;;5026772;28;20212;-82
2022/02/05 05:40:06;;;;;;;1.75;0.63;;;;;10.50;101619.00;;;;5030368;28;20992;-81
2022/02/05 05:42:38;;;;;;;3.53;0.50;;;;;10.50;101615.00;;;;5029694;28;20286;-81
2022/02/05 05:45:26;;;;;;;3.25;0.50;;;;;10.50;101623.00;;;;5022100;28;20616;-82
2022/02/05 05:47:56;;;;;;;4.95;1.05;;;;;10.40;101631.00;;;;5027524;28;20220;-81
2022/02/05 05:50:58;;;;;;;2.55;0.60;;;;;10.40;101630.00;;;;5029666;28;20193;-81
2022/02/05 05:53:25;;;;;;;4.28;0.70;;;;;10.40;101628.00;;;;5024557;28;20563;-82
2022/02/05 05:55:54;;;;;;;2.45;0.75;;;;;10.30;101632.00;;;;5023986;28;20283;-81
2022/02/05 05:58:22;;;;;;;3.70;0.82;;;;;10.30;101625.00;;;;5028180;28;20287;-81
2022/02/05 06:00:50;;;;;;;1.77;0.50;;;;;10.30;101628.00;;;;5030196;28;20566;-81
2022/02/05 06:03:17;;;;;;;2.80;0.57;;;;;10.20;101638.00;;;;5025383;28;20204;-82
2022/02/05 06:05:44;;;;;;;3.00;0.45;;;;;10.20;101634.00;;;;5031037;28;20204;-82
2022/02/05 06:08:12;;;;;;;1.70;0.50;;;;;10.20;101630.00;;;;5020904;28;20220;-82
2022/02/05 06:10:40;;;;;;;2.10;0.60;;;;;10.20;101646.00;;;;5029600;28;20209;-82
2022/02/05 06:13:09;;;;;;;1.70;0.40;;;;;10.10;101651.00;;;;5028938;28;20203;-81
2022/02/05 06:15:38;;;;;;;2.10;0.52;;;;;10.10;101652.00;;;;5011887;28;20197;-81
2022/02/05 06:18:06;;;;;;;3.22;0.80;;;;;10.10;101646.00;;;;5022042;28;20247;-82
2022/02/05 06:20:34;;;;;;;2.38;0.57;;;;;10.10;101647.00;;;;5015489;28;20252;-82
2022/02/05 06:23:01;;;;;;;2.42;0.60;;;;;10.10;101650.00;;;;5024833;28;20197;-81
2022/02/05 06:25:31;;;;;;;3.97;1.00;;;;;10.10;101645.00;;;;5013795;28;20251;-81
2022/02/05 06:27:58;;;;;;;2.50;0.88;;;;;10.10;101649.00;;;;5027434;28;20765;-81
2022/02/05 06:30:28;;;;;;;7.97;2.10;;;;;10.10;101653.00;;;;5026342;28;20216;-82
2022/02/05 06:32:55;;;;;;;2.45;0.85;;;;;10.10;101652.00;;;;5024700;28;20196;-82
2022/02/05 06:35:23;;;;;;;3.47;1.05;;;;;10.10;101649.00;;;;5026341;28;20204;-81
2022/02/05 06:37:50;;;;;;;6.70;1.45;;;;;10.10;101654.00;;;;5034150;28;20208;-82
2022/02/05 06:40:18;;;;;;;5.18;0.90;;;;;10.10;101656.00;;;;5031212;28;20193;-81
2022/02/05 06:42:48;;;;;;;1.35;0.73;;;;;10.10;101654.00;;;;5029643;28;20200;-82
2022/02/05 06:45:17;;;;;;;2.63;1.15;;;;;10.10;101651.00;;;;5029907;28;20199;-82
2022/02/05 06:47:46;;;;;;;4.10;0.77;;;;;10.10;101664.00;;;;5029577;28;20220;-81
2022/02/05 06:50:13;;;;;;;5.43;0.93;;;;;10.10;101672.00;;;;5030108;28;20667;-82
2022/02/05 06:52:42;;;;;;;3.05;0.95;;;;;10.10;101679.00;;;;5029832;28;20207;-81
2022/02/05 06:55:10;;;;;;;2.35;0.70;;;;;10.20;101684.00;;;;5012684;28;20216;-82
2022/02/05 06:57:38;;;;;;;2.15;0.70;;;;;10.20;101687.00;;;;5026862;28;20208;-82
2022/02/05 07:00:07;;;;;;;2.45;0.88;;;;;10.20;101685.00;;;;5028756;28;20192;-82
2022/02/05 07:02:34;;;;;;;3.13;0.85;;;;;10.20;101691.00;;;;5027352;28;20204;-82
2022/02/05 07:05:03;;;;;;;3.78;1.10;;;;;10.20;101697.00;;;;5018072;28;20192;-82
2022/02/05 07:07:31;;;;;;;3.67;1.23;;;;;10.30;101693.00;;;;5025814;28;20236;-82
2022/02/05 07:09:58;;;;;;;2.92;0.90;;;;;10.30;101687.00;;;;5009387;28;20196;-82
2022/02/05 07:12:25;;;;;;;5.47;1.05;;;;;10.30;101692.00;;;;5025811;28;20215;-82
2022/02/05 07:15:02;;;;;;;4.78;0.70;;;;;10.30;101686.00;;;;5028726;28;20200;-82
2022/02/05 07:17:38;;;;;;;2.90;0.70;;;;;10.40;101692.00;;;;5018677;28;20203;-82
2022/02/05 07:20:16;;;;;;;2.92;1.05;;;;;10.40;101701.00;;;;5008814;28;20211;-82
2022/02/05 07:23:06;;;;;;;4.75;0.80;;;;;10.40;101694.00;;;;5021900;28;20283;-82
2022/02/05 07:31:12;;;;;;;3.90;0.63;;;;;10.40;101709.00;;;;5021499;28;20251;-82
2022/02/05 07:33:39;;;;;;;1.98;0.57;;;;;10.50;101709.00;;;;5025693;28;20254;-82
2022/02/05 07:36:08;;;;;;;1.10;0.50;;;;;10.50;101707.00;;;;5016229;28;20196;-82
2022/02/05 07:38:36;;;;;;;2.63;0.60;;;;;10.50;101709.00;;;;5029325;28;20205;-82
2022/02/05 07:41:03;;;;;;;4.18;0.63;;;;;10.50;101714.00;;;;5024337;28;20295;-82
2022/02/05 07:43:34;;;;;;;1.30;0.45;;;;;10.60;101709.00;;;;5022688;28;20204;-80
2022/02/05 07:46:02;;;;;;;5.65;1.00;;;;;10.60;101710.00;;;;5024564;28;20203;-81
2022/02/05 07:48:29;;;;;;;2.63;0.60;;;;;10.60;101722.00;;;;5021503;28;20251;-84
2022/02/05 07:50:57;;;;;;;2.53;0.70;;;;;10.60;101720.00;;;;5017423;28;20655;-82
2022/02/05 07:53:25;;;;;;;2.58;0.65;;;;;10.60;101726.00;;;;5022961;28;20203;-81
2022/02/05 07:55:53;;;;;;;2.97;0.65;;;;;10.70;101726.00;;;;5026408;28;20197;-81
2022/02/05 07:58:20;;;;;;;2.58;0.80;;;;;10.70;101726.00;;;;5025301;28;20613;-80
2022/02/05 08:00:48;;;;;;;5.00;1.27;;;;;10.80;101728.00;;;;5024427;28;20199;-81
2022/02/05 08:03:16;;;;;;;2.42;1.10;;;;;10.80;101725.00;;;;5019922;28;20295;-82
2022/02/05 08:05:43;;;;;;;3.40;1.00;;;;;10.90;101726.00;;;;5009425;28;20209;-82
2022/02/05 08:08:14;;;;;;;5.28;1.90;;;;;10.90;101718.00;;;;5021441;28;20230;-82
2022/02/05 08:10:50;;;;;;;9.85;3.65;;;;;10.90;101716.00;;;;5028120;28;20265;-82
2022/02/05 08:13:19;;;;;;;6.78;3.42;;;;;10.90;101714.00;;;;5027780;28;20660;-83
2022/02/05 08:15:51;;;;;;;7.43;4.40;;;;;11.00;101713.00;;;;5025281;28;20193;-82
2022/02/05 08:18:18;;;;;;;7.70;3.65;;;;;11.00;101702.00;;;;5022874;28;20330;-82
2022/02/05 08:20:45;;;;;;;4.38;3.20;;;;;11.10;101712.00;;;;5031015;28;20195;-82
2022/02/05 08:23:13;;;;;;;6.00;3.17;;;;;11.10;101703.00;;;;5025040;28;20192;-81
2022/02/05 08:25:42;;;;;;;3.78;1.85;;;;;11.10;101710.00;;;;5027682;28;20218;-82
2022/02/05 08:28:10;;;;;;;4.43;1.85;;;;;11.10;101715.00;;;;5028475;28;20224;-84
2022/02/05 08:30:37;;;;;;;3.40;1.35;;;;;11.20;101720.00;;;;5027286;28;20226;-83
2022/02/05 08:33:04;;;;;;;3.30;1.23;;;;;11.20;101728.00;;;;5027359;28;20208;-84
2022/02/05 08:35:31;;;;;;;3.50;1.02;;;;;11.20;101718.00;;;;5024013;28;20200;-84
2022/02/05 08:38:00;;;;;;;4.40;0.90;;;;;11.30;101740.00;;;;5025893;28;20200;-85
2022/02/05 08:40:28;;;;;;;4.03;0.70;;;;;11.30;101726.00;;;;5027325;28;20192;-83
2022/02/05 08:42:58;;;;;;;3.13;0.90;;;;;11.40;101730.00;;;;5026189;28;20192;-82
2022/02/05 08:45:25;;;;;;;5.70;1.15;;;;;11.40;101729.00;;;;5029760;28;20634;-82
2022/02/05 08:47:54;;;;;;;2.17;0.60;;;;;11.40;101737.00;;;;5027781;28;20662;-81
2022/02/05 08:50:21;;;;;;;5.05;1.00;;;;;11.50;101741.00;;;;5027824;28;20284;-82
2022/02/05 08:52:53;;;;;;;5.70;1.17;;;;;11.60;101742.00;;;;5025069;28;20219;-83
2022/02/05 08:55:21;;;;;;;1.80;0.80;;;;;11.60;101750.00;;;;5027041;28;20203;-83
2022/02/05 08:57:51;;;;;;;1.08;0.47;;;;;11.60;101751.00;;;;5030593;28;20262;-84
2022/02/05 09:00:24;;;;;;;4.35;0.98;;;;;11.60;101750.00;;;;5032630;28;20227;-84
2022/02/05 09:02:57;;;;;;;1.48;0.57;;;;;11.70;101759.00;;;;5031863;28;20289;-84
2022/02/05 09:05:37;;;;;;;5.50;0.82;;;;;11.70;101769.00;;;;5033352;28;20193;-82
2022/02/05 09:08:10;;;;;;;3.95;0.80;;;;;11.70;101765.00;;;;5021069;28;20497;-80
2022/02/05 09:10:51;;;;;;;3.45;1.15;;;;;11.70;101775.00;;;;5021499;28;20232;-82
2022/02/05 09:13:37;;;;;;;1.83;0.40;;;;;11.70;101773.00;;;;5015126;28;20208;-83
2022/02/05 09:16:08;;;;;;;2.22;0.88;;;;;11.70;101784.00;;;;5014012;28;20201;-83
2022/02/05 09:18:35;;;;;;;2.95;1.05;;;;;11.80;101780.00;;;;5019937;28;20221;-83
2022/02/05 09:21:04;;;;;;;3.72;0.80;;;;;11.80;101780.00;;;;5027639;28;20208;-82
2022/02/05 09:23:31;;;;;;;4.28;0.95;;;;;11.90;101772.00;;;;5012647;28;20205;-83
2022/02/05 09:26:00;;;;;;;1.45;0.52;;;;;11.90;101776.00;;;;5021689;28;20200;-83
2022/02/05 09:28:29;;;;;;;4.72;1.25;;;;;11.90;101772.00;;;;5032197;28;20216;-81
2022/02/05 09:31:24;;;;;;;1.85;0.70;;;;;11.90;101765.00;;;;5024873;28;20571;-81
2022/02/05 09:33:51;;;;;;;2.28;1.02;;;;;11.90;101764.00;;;;5029112;28;20212;-81
2022/02/05 09:36:18;;;;;;;1.17;0.68;;;;;12.00;101765.00;;;;5028014;28;20575;-80
2022/02/05 09:38:46;;;;;;;5.60;1.08;;;;;12.00;101750.00;;;;5029796;28;20207;-81
2022/02/05 09:41:13;;;;;;;3.65;1.33;;;;;12.00;101765.00;;;;5032218;28;20196;-81
2022/02/05 09:43:40;;;;;;;6.63;1.02;;;;;12.10;101758.00;;;;5027040;28;20204;-80
2022/02/05 09:46:08;;;;;;;2.17;0.60;;;;;12.10;101764.00;;;;5029740;28;20192;-81
2022/02/05 09:48:38;;;;;;;4.05;1.00;;;;;12.10;101765.00;;;;5032278;28;20224;-81
2022/02/05 09:51:15;;;;;;;6.13;0.80;;;;;12.10;101764.00;;;;5032196;28;20207;-81
2022/02/05 09:53:50;;;;;;;2.95;0.90;;;;;12.20;101770.00;;;;5028766;28;20623;-81
2022/02/05 09:56:19;;;;;;;4.95;1.25;;;;;12.20;101765.00;;;;5025982;28;20204;-81
2022/02/05 09:58:46;;;;;;;2.63;0.70;;;;;12.30;101756.00;;;;5031883;28;20208;-81
2022/02/05 10:01:18;;;;;;;1.92;0.85;;;;;12.30;101761.00;;;;5031439;28;20215;-81
2022/02/05 10:03:47;;;;;;;8.23;0.82;;;;;12.40;101760.00;;;;5028740;28;20251;-81
2022/02/05 10:06:19;;;;;;;6.15;1.00;;;;;12.40;101768.00;;;;5019222;28;20205;-81
2022/02/05 10:08:48;;;;;;;1.67;0.55;;;;;12.40;101765.00;;;;5020435;28;20216;-82
2022/02/05 10:11:15;;;;;;;5.20;1.48;;;;;12.50;101754.00;;;;5032166;28;20207;-81
2022/02/05 10:13:43;;;;;;;3.33;1.15;;;;;12.50;101767.00;;;;5023445;28;20216;-79
2022/02/05 10:16:10;;;;;;;3.40;0.90;;;;;12.60;101780.00;;;;5016499;28;20573;-82
2022/02/05 10:18:39;;;;;;;4.72;0.50;;;;;12.60;101759.00;;;;5027506;28;20231;-81
2022/02/05 10:21:22;;;;;;;2.45;0.82;;;;;12.60;101774.00;;;;5031069;28;20573;-83
2022/02/05 10:23:58;;;;;;;3.55;0.75;;;;;12.70;101767.00;;;;5027251;28;20197;-82
2022/02/05 10:26:30;;;;;;;6.85;1.08;;;;;12.80;101776.00;;;;5024538;28;20686;-83
2022/02/05 10:29:02;;;;;;;4.43;1.35;;;;;12.80;101768.00;;;;5025654;28;20248;-83
2022/02/05 10:31:51;;;;;;;3.42;0.55;;;;;12.90;101770.00;;;;5027540;28;20277;-82
2022/02/05 10:34:18;;;;;;;4.55;1.33;;;;;13.00;101766.00;;;;5028803;28;20215;-82
2022/02/05 10:36:48;;;;;;;2.67;1.00;;;;;13.00;101765.00;;;;5015011;28;20226;-82
2022/02/05 10:39:27;;;;;;;4.32;1.13;;;;;13.20;101755.00;;;;5029559;28;20192;-82
2022/02/05 10:45:04;;;;;;;3.22;1.35;;;;;13.30;101763.00;;;;4996171;28;20734;-80
2022/02/05 10:47:50;;;;;;;3.03;0.70;;;;;13.40;101749.00;;;;4999892;28;20999;-81
2022/02/05 10:50:20;;;;;;;5.10;0.90;;;;;13.50;101758.00;;;;5021947;28;20224;-81
2022/02/05 10:52:56;;;;;;;6.78;1.20;;;;;13.60;101754.00;;;;5029685;28;20204;-81
2022/02/05 10:55:41;;;;;;;2.75;1.10;;;;;13.60;101758.00;;;;5033254;28;20204;-80
2022/02/05 10:58:17;;;;;;;6.32;1.10;;;;;13.80;101762.00;;;;5028977;28;20184;-80
2022/02/05 11:06:15;;;;;;;3.40;1.00;;;;;14.00;101765.00;;;;5029636;28;20705;-79
2022/02/05 11:08:43;;;;;;;4.20;0.80;;;;;14.00;101757.00;;;;5025025;28;20229;-81
2022/02/05 11:19:36;;;;;;;4.65;1.17;;;;;14.10;101752.00;;;;5020160;28;20820;-83
2022/02/05 11:22:04;;;;;;;8.43;1.35;;;;;14.10;101743.00;;;;5029252;28;20196;-84
2022/02/05 11:24:34;;;;;;;3.72;0.75;;;;;14.10;101749.00;;;;5025591;28;20706;-83
2022/02/05 11:27:01;;;;;;;4.28;1.13;;;;;14.10;101749.00;;;;5012404;28;20196;-82
2022/02/05 11:29:31;;;;;;;1.65;0.45;;;;;14.20;101752.00;;;;5028086;28;20224;-81
2022/02/05 11:32:24;;;;;;;5.10;1.70;;;;;14.10;101744.00;;;;5015930;28;20311;-81
2022/02/05 11:35:06;;;;;;;3.65;0.90;;;;;14.10;101735.00;;;;5027680;28;20204;-82
2022/02/05 11:37:49;;;;;;;3.45;1.00;;;;;14.20;101737.00;;;;5013684;28;20326;-81
2022/02/05 11:40:37;;;;;;;4.55;1.23;;;;;14.30;101729.00;;;;5027734;28;20203;-81
2022/02/05 11:43:22;;;;;;;4.80;1.55;;;;;14.30;101715.00;;;;5025274;28;20201;-81
2022/02/05 11:46:11;;;;;;;5.05;1.30;;;;;14.30;101722.00;;;;5028722;28;21241;-82
2022/02/05 11:48:48;;;;;;;2.75;0.82;;;;;14.40;101724.00;;;;5028491;28;20200;-81
2022/02/05 11:51:17;;;;;;;2.15;0.82;;;;;14.50;101721.00;;;;5029924;28;20203;-81
2022/02/05 11:54:15;;;;;;;5.13;1.15;;;;;14.40;101721.00;;;;5029365;28;20212;-80
2022/02/05 11:56:53;;;;;;;2.58;0.70;;;;;14.40;101739.00;;;;5031485;28;20184;-82
2022/02/05 11:59:23;;;;;;;4.20;0.95;;;;;14.50;101724.00;;;;5031498;28;20204;-80
2022/02/05 12:01:51;;;;;;;6.85;1.55;;;;;14.50;101716.00;;;;5034910;28;20204;-81
2022/02/05 12:04:22;;;;;;;6.55;1.40;;;;;14.50;101723.00;;;;5031335;28;20211;-81
2022/02/05 12:06:54;;;;;;;3.28;0.93;;;;;14.50;101717.00;;;;5033110;28;20681;-82
2022/02/05 12:09:35;;;;;;;5.72;1.40;;;;;14.40;101719.00;;;;5029831;28;20761;-83
2022/02/05 12:12:37;;;;;;;2.50;0.90;;;;;14.30;101726.00;;;;5021204;28;20189;-83
2022/02/05 12:15:22;;;;;;;2.45;0.65;;;;;14.40;101718.00;;;;5007310;28;20196;-84
2022/02/05 12:18:24;;;;;;;3.60;0.88;;;;;14.40;101724.00;;;;5016647;28;20236;-83
2022/02/05 12:21:13;;;;;;;1.67;0.45;;;;;14.50;101696.00;;;;4994759;28;20224;-83
2022/02/05 12:26:49;;;;;;;7.32;1.15;;;;;14.60;101686.00;;;;5001726;28;20205;-85
2022/02/05 12:29:41;;;;;;;4.20;1.30;;;;;14.50;101694.00;;;;5026946;28;20243;-84
2022/02/05 12:32:09;;;;;;;2.63;0.98;;;;;14.70;101692.00;;;;5013423;28;20566;-86
2022/02/05 12:34:39;;;;;;;3.15;1.10;;;;;14.70;101678.00;;;;5029142;28;20204;-88
2022/02/05 12:37:06;;;;;;;3.28;0.98;;;;;14.80;101681.00;;;;5028897;28;20192;-84
2022/02/05 12:39:36;;;;;;;2.55;0.93;;;;;14.80;101679.00;;;;5028293;28;20235;-85
2022/02/05 12:42:13;;;;;;;7.25;0.90;;;;;14.90;101685.00;;;;5029007;28;20192;-88
2022/02/05 12:44:43;;;;;;;2.55;0.70;;;;;14.90;101688.00;;;;5027795;28;20196;-84
2022/02/05 12:47:19;;;;;;;3.55;0.75;;;;;14.90;101683.00;;;;5017458;28;20205;-85
2022/02/05 12:49:53;;;;;;;5.53;1.30;;;;;14.90;101687.00;;;;5024577;28;20298;-86
2022/02/05 12:52:25;;;;;;;4.68;0.95;;;;;14.90;101674.00;;;;5027074;28;20273;-84
2022/02/05 12:54:59;;;;;;;5.10;0.95;;;;;15.00;101660.00;;;;5029918;28;20189;-84
2022/02/05 12:57:28;;;;;;;6.53;0.85;;;;;15.00;101663.00;;;;5020230;28;20205;-82
2022/02/05 13:00:07;;;;;;;4.22;0.65;;;;;15.00;101679.00;;;;5032667;28;20187;-84
2022/02/05 13:02:35;;;;;;;3.55;1.17;;;;;15.10;101670.00;;;;5028469;28;20206;-83
2022/02/05 13:05:03;;;;;;;3.83;0.70;;;;;15.10;101679.00;;;;5027893;28;20207;-84
2022/02/05 13:07:34;;;;;;;3.92;0.50;;;;;15.20;101652.00;;;;5027820;28;20292;-89
2022/02/05 13:10:05;;;;;;;4.32;1.00;;;;;15.20;101661.00;;;;5028985;28;20216;-83
2022/02/05 13:12:35;;;;;;;4.72;1.02;;;;;15.30;101658.00;;;;5028402;28;20188;-85
2022/02/05 13:15:18;;;;;;;5.57;1.13;;;;;15.40;101666.00;;;;5026998;28;20189;-81
2022/02/05 13:18:03;;;;;;;3.95;1.10;;;;;15.60;101657.00;;;;5026099;28;20235;-83
2022/02/05 13:26:15;;;;;;;4.38;1.33;;;;;16.10;101646.00;;;;5026075;28;20203;-84
2022/02/05 13:28:49;;;;;;;10.07;2.15;;;;;16.40;101641.00;;;;5027247;28;20820;-84
2022/02/05 13:34:12;;;;;;;2.95;1.13;;;;;16.80;101624.00;;;;5023443;28;20298;-84
2022/02/05 13:36:44;;;;;;;3.33;1.00;;;;;17.00;101625.00;;;;5019065;28;20197;-84
2022/02/05 13:39:26;;;;;;;3.42;1.58;;;;;17.20;101638.00;;;;5029596;28;20276;-85
2022/02/05 13:41:59;;;;;;;6.13;1.42;;;;;17.60;101613.00;;;;5029677;28;20275;-84
2022/02/05 13:44:41;;;;;;;2.35;1.10;;;;;17.80;101622.00;;;;5031158;28;20203;-84
2022/02/05 13:47:13;;;;;;;3.72;1.08;;;;;18.00;101621.00;;;;5031095;28;20658;-83
2022/02/05 13:49:41;;;;;;;2.78;1.33;;;;;18.10;101630.00;;;;5030128;28;21062;-82
2022/02/05 13:52:11;;;;;;;4.50;1.73;;;;;17.90;101619.00;;;;5027065;28;20197;-85
2022/02/05 13:54:42;;;;;;;6.65;1.85;;;;;17.80;101621.00;;;;5022045;28;20189;-84
2022/02/05 13:57:12;;;;;;;3.42;1.42;;;;;17.60;101612.00;;;;5030138;28;20208;-86
2022/02/05 13:59:40;;;;;;;3.05;1.27;;;;;17.40;101615.00;;;;5012122;28;20201;-84
2022/02/05 14:02:19;;;;;;;6.25;1.50;;;;;17.20;101607.00;;;;5030758;28;20204;-83
2022/02/05 14:05:01;;;;;;;4.53;1.20;;;;;17.20;101606.00;;;;5030813;28;20203;-84
2022/02/05 14:07:42;;;;;;;4.28;1.02;;;;;16.90;101601.00;;;;5027867;28;20203;-85
2022/02/05 14:10:14;;;;;;;6.05;1.10;;;;;16.80;101601.00;;;;5025839;28;20637;-82
2022/02/05 14:12:49;;;;;;;4.50;1.20;;;;;16.60;101609.00;;;;5027714;28;20208;-83
2022/02/05 14:15:18;;;;;;;2.63;1.05;;;;;16.60;101622.00;;;;5030427;28;20276;-83